createdAt,value
2018-06-03T00:00:03.466Z,1018.37
2018-06-03T00:05:02.702Z,1018.35
2018-06-03T00:10:03.425Z,1018.37
2018-06-03T00:15:03.046Z,1018.41
2018-06-03T00:20:03.634Z,1018.29
2018-06-03T00:25:03.208Z,1018.32
2018-06-03T00:30:02.731Z,1018.3
2018-06-03T00:35:03.418Z,1018.25
2018-06-03T00:40:03.101Z,1018.28
2018-06-03T00:45:03.661Z,1018.19
2018-06-03T00:50:03.248Z,1018.26
2018-06-03T00:55:02.837Z,1018.22
2018-06-03T01:00:03.441Z,1018.16
2018-06-03T01:05:02.995Z,1018.22
2018-06-03T01:10:03.673Z,1018.12
2018-06-03T01:15:03.283Z,1018.12
2018-06-03T01:20:02.916Z,1018.19
2018-06-03T01:25:03.488Z,1018.13
2018-06-03T01:30:03.103Z,1018.13
2018-06-03T01:35:03.649Z,1018.16
2018-06-03T01:40:03.309Z,1018.13
2018-06-03T01:45:02.939Z,1018.17
2018-06-03T01:50:03.527Z,1018.11
2018-06-03T01:55:03.071Z,1018.13
2018-06-03T02:00:03.647Z,1018.1
2018-06-03T02:05:03.360Z,1018.09
2018-06-03T02:10:03.056Z,1018.1
2018-06-03T02:15:03.638Z,1018.02
2018-06-03T02:20:03.234Z,1018.01
2018-06-03T02:25:02.829Z,1017.97
2018-06-03T02:30:03.441Z,1017.93
2018-06-03T02:35:03.094Z,1017.96
2018-06-03T02:40:03.880Z,1017.92
2018-06-03T02:45:03.475Z,1017.9
2018-06-03T02:50:03.083Z,1017.85
2018-06-03T02:55:03.712Z,1017.88
2018-06-03T03:00:03.298Z,1017.81
2018-06-03T03:05:03.050Z,1017.82
2018-06-03T03:10:02.766Z,1017.82
2018-06-03T03:15:03.396Z,1017.81
2018-06-03T03:20:02.941Z,1017.87
2018-06-03T03:25:03.560Z,1017.82
2018-06-03T03:30:03.242Z,1017.79
2018-06-03T03:35:02.978Z,1017.77
2018-06-03T03:40:03.694Z,1017.75
2018-06-03T03:45:03.276Z,1017.78
2018-06-03T03:50:02.861Z,1017.77
2018-06-03T03:55:03.513Z,1017.8
2018-06-03T04:00:03.032Z,1017.84
2018-06-03T04:05:03.615Z,1017.86
2018-06-03T04:10:03.248Z,1017.82
2018-06-03T04:15:02.841Z,1017.82
2018-06-03T04:20:03.407Z,1017.82
2018-06-03T04:25:03.090Z,1017.78
2018-06-03T04:30:02.714Z,1017.82
2018-06-03T04:35:03.246Z,1017.83
2018-06-03T04:40:02.902Z,1017.91
2018-06-03T04:45:03.457Z,1017.84
2018-06-03T04:50:03.019Z,1017.93
2018-06-03T04:55:03.900Z,1017.93
2018-06-03T05:00:03.538Z,1018
2018-06-03T05:05:03.127Z,1018.05
2018-06-03T05:10:02.805Z,1018.07
2018-06-03T05:15:03.438Z,1018.06
2018-06-03T05:20:03.022Z,1018.08
2018-06-03T05:25:03.623Z,1017.99
2018-06-03T05:30:03.266Z,1018.03
2018-06-03T05:35:02.871Z,1018.12
2018-06-03T05:40:03.556Z,1018.17
2018-06-03T05:45:03.095Z,1018.21
2018-06-03T05:50:02.681Z,1018.21
2018-06-03T05:55:03.310Z,1018.19
2018-06-03T06:00:02.911Z,1018.28
2018-06-03T06:05:03.492Z,1018.4
2018-06-03T06:10:03.105Z,1018.43
2018-06-03T06:15:02.731Z,1018.39
2018-06-03T06:20:03.521Z,1018.44
2018-06-03T06:25:03.078Z,1018.57
2018-06-03T06:30:02.741Z,1018.58
2018-06-03T06:35:03.349Z,1018.61
2018-06-03T06:40:02.991Z,1018.7
2018-06-03T06:45:03.705Z,1018.65
2018-06-03T06:50:03.501Z,1018.73
2018-06-03T06:55:03.109Z,1018.81
2018-06-03T07:00:02.767Z,1018.77
2018-06-03T07:05:03.391Z,1018.81
2018-06-03T07:10:02.997Z,1018.83
2018-06-03T07:15:03.694Z,1018.83
2018-06-03T07:20:03.362Z,1018.92
2018-06-03T07:25:02.990Z,1018.93
2018-06-03T07:30:03.531Z,1018.96
2018-06-03T07:35:03.099Z,1018.85
2018-06-03T07:40:02.756Z,1018.9
2018-06-03T07:45:03.402Z,1018.86
2018-06-03T07:50:03.032Z,1018.86
2018-06-03T07:55:03.600Z,1018.82
2018-06-03T08:00:03.161Z,1018.89
2018-06-03T08:05:02.872Z,1018.9
2018-06-03T08:10:03.535Z,1018.87
2018-06-03T08:15:03.080Z,1018.87
2018-06-03T08:20:02.725Z,1018.83
2018-06-03T08:25:03.346Z,1018.78
2018-06-03T08:30:02.865Z,1018.74
2018-06-03T08:35:03.473Z,1018.78
2018-06-03T08:40:03.124Z,1018.71
2018-06-03T08:45:02.735Z,1018.74
2018-06-03T08:50:03.356Z,1018.73
2018-06-03T08:55:02.948Z,1018.66
2018-06-03T09:00:02.734Z,1018.68
2018-06-03T09:05:03.316Z,1018.65
2018-06-03T09:10:02.934Z,1018.66
2018-06-03T09:15:03.595Z,1018.68
2018-06-03T09:20:03.170Z,1018.61
2018-06-03T09:25:03.173Z,1018.62
2018-06-03T09:30:02.798Z,1018.72
2018-06-03T09:35:03.618Z,1018.6
2018-06-03T09:40:03.240Z,1018.58
2018-06-03T09:45:02.757Z,1018.47
2018-06-03T09:50:03.343Z,1018.42
2018-06-03T09:55:02.967Z,1018.37
2018-06-03T10:00:03.578Z,1018.38
2018-06-03T10:05:03.257Z,1018.29
2018-06-03T10:10:02.954Z,1018.26
2018-06-03T10:15:03.531Z,1018.27
2018-06-03T10:20:03.142Z,1018.25
2018-06-03T10:25:02.705Z,1018.25
2018-06-03T10:30:03.340Z,1018.37
2018-06-03T10:35:03.001Z,1018.38
2018-06-03T10:40:03.768Z,1018.39
2018-06-03T10:45:03.455Z,1018.43
2018-06-03T10:50:03.089Z,1018.39
2018-06-03T10:55:02.756Z,1018.34
2018-06-03T11:00:03.379Z,1018.26
2018-06-03T11:05:02.997Z,1018.24
2018-06-03T11:10:02.789Z,1018.25
2018-06-03T11:15:03.355Z,1018.19
2018-06-03T11:20:02.977Z,1018.11
2018-06-03T11:25:03.544Z,1018.12
2018-06-03T11:30:03.108Z,1018.14
2018-06-03T11:35:02.770Z,1018.12
2018-06-03T11:40:03.451Z,1018.13
2018-06-03T11:45:03.062Z,1018.16
2018-06-03T11:50:02.714Z,1018.14
2018-06-03T11:55:03.296Z,1018.12
2018-06-03T12:00:02.900Z,1018.14
2018-06-03T12:05:03.665Z,1018.09
2018-06-03T12:10:03.408Z,1018.03
2018-06-03T12:15:03.023Z,1018.03
2018-06-03T12:20:03.629Z,1017.96
2018-06-03T12:25:03.226Z,1017.92
2018-06-03T12:30:02.794Z,1017.95
2018-06-03T12:35:03.455Z,1017.86
2018-06-03T12:40:03.121Z,1017.86
2018-06-03T12:45:03.676Z,1017.9
2018-06-03T12:50:03.218Z,1017.77
2018-06-03T12:55:02.791Z,1017.76
2018-06-03T13:05:02.864Z,1017.61
2018-06-03T13:10:03.576Z,1017.55
2018-06-03T13:15:03.173Z,1017.53
2018-06-03T13:20:02.816Z,1017.49
2018-06-03T13:25:03.388Z,1017.5
2018-06-03T13:30:02.983Z,1017.47
2018-06-03T13:35:03.553Z,1017.51
2018-06-03T13:40:03.238Z,1017.46
2018-06-03T13:45:02.862Z,1017.4
2018-06-03T13:50:03.605Z,1017.33
2018-06-03T13:55:03.126Z,1017.31
2018-06-03T14:00:02.696Z,1017.22
2018-06-03T14:05:03.477Z,1017.17
2018-06-03T14:10:03.188Z,1017.16
2018-06-03T14:15:02.819Z,1017.07
2018-06-03T14:20:03.458Z,1017.07
2018-06-03T14:25:02.991Z,1017.01
2018-06-03T14:30:03.570Z,1016.92
2018-06-03T14:35:03.194Z,1016.89
2018-06-03T14:40:02.841Z,1016.88
2018-06-03T14:45:03.626Z,1016.8
2018-06-03T14:50:03.263Z,1016.73
2018-06-03T14:55:02.893Z,1016.69
2018-06-03T15:00:03.595Z,1016.57
2018-06-03T15:05:03.197Z,1016.49
2018-06-03T15:10:03.103Z,1016.46
2018-06-03T15:15:02.743Z,1016.28
2018-06-03T15:20:03.392Z,1016.17
2018-06-03T15:25:03.066Z,1016.14
2018-06-03T15:30:02.711Z,1016.06
2018-06-03T15:35:03.333Z,1016.04
2018-06-03T15:40:02.991Z,1015.99
2018-06-03T15:45:03.604Z,1015.99
2018-06-03T15:50:03.256Z,1015.89
2018-06-03T15:55:02.867Z,1015.78
2018-06-03T16:00:03.445Z,1015.8
2018-06-03T16:05:03.424Z,1015.78
2018-06-03T16:10:03.170Z,1015.73
2018-06-03T16:15:02.744Z,1015.74
2018-06-03T16:20:03.408Z,1015.72
2018-06-03T16:25:03.175Z,1015.76
2018-06-03T16:30:02.755Z,1015.68
2018-06-03T16:35:03.318Z,1015.67
2018-06-03T16:40:02.954Z,1015.62
2018-06-03T16:45:03.580Z,1015.68
2018-06-03T16:50:03.109Z,1015.69
2018-06-03T16:55:03.673Z,1015.61
2018-06-03T17:00:03.221Z,1015.54
2018-06-03T17:05:02.850Z,1015.48
2018-06-03T17:10:03.572Z,1015.43
2018-06-03T17:15:03.166Z,1015.38
2018-06-03T17:20:02.800Z,1015.29
2018-06-03T17:25:03.385Z,1015.3
2018-06-03T17:30:02.985Z,1015.35
2018-06-03T17:35:03.570Z,1015.33
2018-06-03T17:40:03.186Z,1015.23
2018-06-03T17:45:02.707Z,1015.15
2018-06-03T17:50:03.323Z,1015.1
2018-06-03T17:55:02.966Z,1015.08
2018-06-03T18:00:03.559Z,1015.05
2018-06-03T18:05:03.123Z,1015.01
2018-06-03T18:10:02.713Z,1015.03
2018-06-03T18:15:03.310Z,1015
2018-06-03T18:20:02.921Z,1014.96
2018-06-03T18:25:03.567Z,1014.98
2018-06-03T18:30:03.295Z,1015.01
2018-06-03T18:35:02.846Z,1015.04
2018-06-03T18:40:03.442Z,1015.01
2018-06-03T18:45:02.958Z,1015.03
2018-06-03T18:50:03.510Z,1015.1
2018-06-03T18:55:03.226Z,1015.06
2018-06-03T19:00:03.139Z,1015.14
2018-06-03T19:05:02.817Z,1015.07
2018-06-03T19:10:03.624Z,1015.11
2018-06-03T19:15:03.274Z,1015.1
2018-06-03T19:20:02.837Z,1015.13
2018-06-03T19:25:03.541Z,1015.18
2018-06-03T19:30:03.202Z,1015.2
2018-06-03T19:35:02.839Z,1015.22
2018-06-03T19:40:03.482Z,1015.14
2018-06-03T19:45:03.096Z,1015.08
2018-06-03T19:50:02.763Z,1015.16
2018-06-03T19:55:03.348Z,1015.24
2018-06-03T20:00:02.928Z,1015.26
2018-06-03T20:05:03.529Z,1015.31
2018-06-03T20:10:03.046Z,1015.4
2018-06-03T20:15:03.678Z,1015.26
2018-06-03T20:20:03.275Z,1015.29
2018-06-03T20:25:02.826Z,1015.27
2018-06-03T20:30:03.434Z,1015.29
2018-06-03T20:35:03.018Z,1015.25
2018-06-03T20:40:03.662Z,1015.26
2018-06-03T20:45:03.488Z,1015.27
2018-06-03T20:50:03.058Z,1015.29
2018-06-03T20:55:03.659Z,1015.33
2018-06-03T21:00:03.186Z,1015.29
2018-06-03T21:05:02.825Z,1015.28
2018-06-03T21:10:03.439Z,1015.21
2018-06-03T21:15:03.029Z,1015.23
2018-06-03T21:20:02.797Z,1015.31
2018-06-03T21:25:03.352Z,1015.26
2018-06-03T21:30:02.945Z,1015.24
2018-06-03T21:35:03.666Z,1015.36
2018-06-03T21:40:03.250Z,1015.29
2018-06-03T21:45:02.910Z,1015.23
2018-06-03T21:50:03.390Z,1015.18
2018-06-03T21:55:03.027Z,1015.28
2018-06-03T22:00:03.580Z,1015.21
2018-06-03T22:05:03.244Z,1015.15
2018-06-03T22:10:02.998Z,1015.15
2018-06-03T22:15:03.594Z,1015.13
2018-06-03T22:20:03.169Z,1015.14
2018-06-03T22:25:02.803Z,1015.17
2018-06-03T22:30:03.474Z,1015.23
2018-06-03T22:35:03.040Z,1015.16
2018-06-03T22:40:03.675Z,1015.2
2018-06-03T22:45:03.233Z,1015.14
2018-06-03T22:50:02.925Z,1015.13
2018-06-03T22:55:03.572Z,1015.06
2018-06-03T23:00:03.106Z,1015.05
2018-06-03T23:05:03.242Z,1015.11
2018-06-03T23:10:02.914Z,1015.06
2018-06-03T23:15:03.639Z,1015.02
2018-06-03T23:20:03.137Z,1014.95
2018-06-03T23:25:03.664Z,1014.97
2018-06-03T23:30:03.367Z,1014.95
2018-06-03T23:35:03.048Z,1014.91
2018-06-03T23:40:03.659Z,1014.92
2018-06-03T23:45:03.293Z,1014.91
2018-06-03T23:50:02.844Z,1014.87
2018-06-03T23:55:03.451Z,1014.87
